sensor_id;sensor_type;location;lat;lon;timestamp;P1;durP1;ratioP1;P2;durP2;ratioP2
10963;SDS011;5534;48.784;9.190;2022-09-09T00:01:59;2.30;;;0.90;;
10963;SDS011;5534;48.784;9.190;2022-09-09T00:10:28;3.47;;;0.80;;
10963;SDS011;5534;48.784;9.190;2022-09-09T00:15:26;2.00;;;0.95;;
10963;SDS011;5534;48.784;9.190;2022-09-09T00:18:03;3.17;;;1.00;;
10963;SDS011;5534;48.784;9.190;2022-09-09T00:20:45;3.38;;;1.15;;
10963;SDS011;5534;48.784;9.190;2022-09-09T00:23:32;1.33;;;0.80;;
10963;SDS011;5534;48.784;9.190;2022-09-09T00:28:36;1.80;;;1.00;;
10963;SDS011;5534;48.784;9.190;2022-09-09T00:31:15;2.72;;;1.23;;
10963;SDS011;5534;48.784;9.190;2022-09-09T00:33:54;3.13;;;1.25;;
10963;SDS011;5534;48.784;9.190;2022-09-09T00:36:27;2.08;;;1.10;;
10963;SDS011;5534;48.784;9.190;2022-09-09T00:38:56;2.28;;;1.10;;
10963;SDS011;5534;48.784;9.190;2022-09-09T00:44:14;2.22;;;1.08;;
10963;SDS011;5534;48.784;9.190;2022-09-09T00:50:00;2.38;;;0.75;;
10963;SDS011;5534;48.784;9.190;2022-09-09T00:52:40;0.90;;;0.70;;
10963;SDS011;5534;48.784;9.190;2022-09-09T00:55:39;3.00;;;0.70;;
10963;SDS011;5534;48.784;9.190;2022-09-09T00:58:06;1.55;;;0.93;;
10963;SDS011;5534;48.784;9.190;2022-09-09T01:00:44;2.25;;;0.52;;
10963;SDS011;5534;48.784;9.190;2022-09-09T01:09:02;1.10;;;0.73;;
10963;SDS011;5534;48.784;9.190;2022-09-09T01:11:36;2.30;;;0.80;;
10963;SDS011;5534;48.784;9.190;2022-09-09T01:14:29;3.53;;;0.70;;
10963;SDS011;5534;48.784;9.190;2022-09-09T01:16:58;4.47;;;1.00;;
10963;SDS011;5534;48.784;9.190;2022-09-09T01:22:35;2.70;;;0.80;;
10963;SDS011;5534;48.784;9.190;2022-09-09T01:27:55;2.38;;;0.95;;
10963;SDS011;5534;48.784;9.190;2022-09-09T01:30:24;3.22;;;0.90;;
10963;SDS011;5534;48.784;9.190;2022-09-09T01:32:54;1.50;;;0.80;;
10963;SDS011;5534;48.784;9.190;2022-09-09T01:37:49;1.88;;;0.60;;
10963;SDS011;5534;48.784;9.190;2022-09-09T01:40:15;3.35;;;1.13;;
10963;SDS011;5534;48.784;9.190;2022-09-09T01:42:41;1.13;;;0.73;;
10963;SDS011;5534;48.784;9.190;2022-09-09T01:45:07;1.60;;;0.70;;
10963;SDS011;5534;48.784;9.190;2022-09-09T01:47:34;1.50;;;0.57;;
10963;SDS011;5534;48.784;9.190;2022-09-09T01:50:00;1.20;;;0.60;;
10963;SDS011;5534;48.784;9.190;2022-09-09T01:52:28;2.55;;;0.80;;
10963;SDS011;5534;48.784;9.190;2022-09-09T01:54:55;6.28;;;0.70;;
10963;SDS011;5534;48.784;9.190;2022-09-09T01:57:29;2.35;;;0.65;;
10963;SDS011;5534;48.784;9.190;2022-09-09T02:07:51;1.13;;;0.60;;
10963;SDS011;5534;48.784;9.190;2022-09-09T02:10:28;3.20;;;0.65;;
10963;SDS011;5534;48.784;9.190;2022-09-09T02:13:01;1.45;;;0.55;;
10963;SDS011;5534;48.784;9.190;2022-09-09T02:18:10;1.90;;;0.85;;
10963;SDS011;5534;48.784;9.190;2022-09-09T02:20:39;1.60;;;0.60;;
10963;SDS011;5534;48.784;9.190;2022-09-09T02:23:06;5.72;;;0.73;;
10963;SDS011;5534;48.784;9.190;2022-09-09T02:25:34;2.55;;;0.90;;
10963;SDS011;5534;48.784;9.190;2022-09-09T02:28:01;4.80;;;0.70;;
10963;SDS011;5534;48.784;9.190;2022-09-09T02:30:30;1.85;;;0.70;;
10963;SDS011;5534;48.784;9.190;2022-09-09T02:32:57;1.48;;;0.65;;
10963;SDS011;5534;48.784;9.190;2022-09-09T02:35:27;1.35;;;0.70;;
10963;SDS011;5534;48.784;9.190;2022-09-09T02:37:56;1.77;;;0.57;;
10963;SDS011;5534;48.784;9.190;2022-09-09T02:40:27;3.13;;;0.88;;
10963;SDS011;5534;48.784;9.190;2022-09-09T02:42:54;2.53;;;0.70;;
10963;SDS011;5534;48.784;9.190;2022-09-09T02:45:25;0.90;;;0.60;;
10963;SDS011;5534;48.784;9.190;2022-09-09T02:56:14;2.97;;;0.60;;
10963;SDS011;5534;48.784;9.190;2022-09-09T02:58:41;2.45;;;0.70;;
10963;SDS011;5534;48.784;9.190;2022-09-09T03:01:07;2.22;;;0.70;;
10963;SDS011;5534;48.784;9.190;2022-09-09T03:03:34;3.13;;;0.80;;
10963;SDS011;5534;48.784;9.190;2022-09-09T03:06:00;2.63;;;0.52;;
10963;SDS011;5534;48.784;9.190;2022-09-09T03:08:26;1.05;;;0.52;;
10963;SDS011;5534;48.784;9.190;2022-09-09T03:10:54;2.13;;;0.70;;
10963;SDS011;5534;48.784;9.190;2022-09-09T03:13:20;1.63;;;0.90;;
10963;SDS011;5534;48.784;9.190;2022-09-09T03:15:47;1.05;;;0.50;;
10963;SDS011;5534;48.784;9.190;2022-09-09T03:18:13;3.72;;;0.70;;
10963;SDS011;5534;48.784;9.190;2022-09-09T03:20:39;4.75;;;1.30;;
10963;SDS011;5534;48.784;9.190;2022-09-09T03:23:07;5.57;;;1.40;;
10963;SDS011;5534;48.784;9.190;2022-09-09T03:25:33;4.35;;;1.50;;
10963;SDS011;5534;48.784;9.190;2022-09-09T03:27:58;6.47;;;1.52;;
10963;SDS011;5534;48.784;9.190;2022-09-09T03:30:25;5.07;;;1.13;;
10963;SDS011;5534;48.784;9.190;2022-09-09T03:32:52;2.55;;;0.70;;
10963;SDS011;5534;48.784;9.190;2022-09-09T03:35:18;3.25;;;0.68;;
10963;SDS011;5534;48.784;9.190;2022-09-09T03:37:44;3.42;;;0.82;;
10963;SDS011;5534;48.784;9.190;2022-09-09T03:40:10;3.75;;;0.80;;
10963;SDS011;5534;48.784;9.190;2022-09-09T03:42:37;2.22;;;0.60;;
10963;SDS011;5534;48.784;9.190;2022-09-09T03:45:04;3.35;;;0.60;;
10963;SDS011;5534;48.784;9.190;2022-09-09T03:47:31;1.63;;;0.80;;
10963;SDS011;5534;48.784;9.190;2022-09-09T03:49:56;1.42;;;0.60;;
10963;SDS011;5534;48.784;9.190;2022-09-09T03:52:22;1.67;;;0.90;;
10963;SDS011;5534;48.784;9.190;2022-09-09T03:54:50;1.27;;;0.73;;
10963;SDS011;5534;48.784;9.190;2022-09-09T03:57:16;1.33;;;0.70;;
10963;SDS011;5534;48.784;9.190;2022-09-09T03:59:42;1.08;;;0.57;;
10963;SDS011;5534;48.784;9.190;2022-09-09T04:02:08;1.35;;;0.50;;
10963;SDS011;5534;48.784;9.190;2022-09-09T04:04:35;3.03;;;0.57;;
10963;SDS011;5534;48.784;9.190;2022-09-09T04:07:00;2.55;;;0.52;;
10963;SDS011;5534;48.784;9.190;2022-09-09T04:09:26;2.75;;;0.88;;
10963;SDS011;5534;48.784;9.190;2022-09-09T04:11:52;1.13;;;0.80;;
10963;SDS011;5534;48.784;9.190;2022-09-09T04:14:18;1.10;;;0.80;;
10963;SDS011;5534;48.784;9.190;2022-09-09T04:16:44;1.23;;;0.80;;
10963;SDS011;5534;48.784;9.190;2022-09-09T04:19:11;1.42;;;0.70;;
10963;SDS011;5534;48.784;9.190;2022-09-09T04:21:39;1.42;;;0.80;;
10963;SDS011;5534;48.784;9.190;2022-09-09T04:24:06;1.80;;;0.80;;
10963;SDS011;5534;48.784;9.190;2022-09-09T04:26:32;1.05;;;0.57;;
10963;SDS011;5534;48.784;9.190;2022-09-09T04:28:59;2.15;;;0.70;;
10963;SDS011;5534;48.784;9.190;2022-09-09T04:31:25;1.08;;;0.60;;
10963;SDS011;5534;48.784;9.190;2022-09-09T04:33:51;1.63;;;0.60;;
10963;SDS011;5534;48.784;9.190;2022-09-09T04:36:17;0.90;;;0.70;;
10963;SDS011;5534;48.784;9.190;2022-09-09T04:38:44;2.20;;;0.70;;
10963;SDS011;5534;48.784;9.190;2022-09-09T04:41:13;2.42;;;0.70;;
10963;SDS011;5534;48.784;9.190;2022-09-09T04:43:40;2.35;;;1.15;;
10963;SDS011;5534;48.784;9.190;2022-09-09T04:46:06;4.03;;;1.10;;
10963;SDS011;5534;48.784;9.190;2022-09-09T04:48:32;2.10;;;1.00;;
10963;SDS011;5534;48.784;9.190;2022-09-09T04:51:02;6.72;;;1.23;;
10963;SDS011;5534;48.784;9.190;2022-09-09T04:53:30;1.83;;;1.00;;
10963;SDS011;5534;48.784;9.190;2022-09-09T04:56:03;1.52;;;1.10;;
10963;SDS011;5534;48.784;9.190;2022-09-09T04:58:31;2.22;;;1.08;;
10963;SDS011;5534;48.784;9.190;2022-09-09T05:01:06;3.42;;;1.50;;
10963;SDS011;5534;48.784;9.190;2022-09-09T05:03:33;3.58;;;1.30;;
10963;SDS011;5534;48.784;9.190;2022-09-09T05:06:04;1.48;;;0.95;;
10963;SDS011;5534;48.784;9.190;2022-09-09T05:08:35;1.30;;;0.80;;
10963;SDS011;5534;48.784;9.190;2022-09-09T05:13:41;2.42;;;0.98;;
10963;SDS011;5534;48.784;9.190;2022-09-09T05:16:08;2.65;;;0.85;;
10963;SDS011;5534;48.784;9.190;2022-09-09T05:18:36;1.63;;;0.90;;
10963;SDS011;5534;48.784;9.190;2022-09-09T05:21:06;2.10;;;0.65;;
10963;SDS011;5534;48.784;9.190;2022-09-09T05:23:35;1.30;;;0.90;;
10963;SDS011;5534;48.784;9.190;2022-09-09T05:26:02;2.92;;;0.98;;
10963;SDS011;5534;48.784;9.190;2022-09-09T05:28:28;4.30;;;1.77;;
10963;SDS011;5534;48.784;9.190;2022-09-09T05:30:59;3.33;;;1.10;;
10963;SDS011;5534;48.784;9.190;2022-09-09T05:33:29;1.70;;;0.90;;
10963;SDS011;5534;48.784;9.190;2022-09-09T05:35:58;3.08;;;1.08;;
10963;SDS011;5534;48.784;9.190;2022-09-09T05:38:25;2.63;;;1.10;;
10963;SDS011;5534;48.784;9.190;2022-09-09T05:40:51;2.35;;;0.82;;
10963;SDS011;5534;48.784;9.190;2022-09-09T05:43:18;2.35;;;0.88;;
10963;SDS011;5534;48.784;9.190;2022-09-09T05:45:45;4.40;;;0.95;;
10963;SDS011;5534;48.784;9.190;2022-09-09T05:48:13;1.85;;;0.90;;
10963;SDS011;5534;48.784;9.190;2022-09-09T05:50:42;4.32;;;1.38;;
10963;SDS011;5534;48.784;9.190;2022-09-09T05:53:08;4.03;;;1.02;;
10963;SDS011;5534;48.784;9.190;2022-09-09T05:55:35;2.13;;;0.93;;
10963;SDS011;5534;48.784;9.190;2022-09-09T05:58:01;2.33;;;1.20;;
10963;SDS011;5534;48.784;9.190;2022-09-09T06:00:27;4.40;;;1.10;;
10963;SDS011;5534;48.784;9.190;2022-09-09T06:02:54;2.15;;;0.90;;
10963;SDS011;5534;48.784;9.190;2022-09-09T06:05:20;3.45;;;1.02;;
10963;SDS011;5534;48.784;9.190;2022-09-09T06:07:47;4.45;;;1.20;;
10963;SDS011;5534;48.784;9.190;2022-09-09T06:10:17;1.88;;;0.85;;
10963;SDS011;5534;48.784;9.190;2022-09-09T06:12:42;2.90;;;1.00;;
10963;SDS011;5534;48.784;9.190;2022-09-09T06:15:08;3.67;;;1.15;;
10963;SDS011;5534;48.784;9.190;2022-09-09T06:17:34;2.42;;;0.90;;
10963;SDS011;5534;48.784;9.190;2022-09-09T06:20:00;4.05;;;1.17;;
10963;SDS011;5534;48.784;9.190;2022-09-09T06:22:27;2.90;;;1.10;;
10963;SDS011;5534;48.784;9.190;2022-09-09T06:24:53;3.10;;;1.30;;
10963;SDS011;5534;48.784;9.190;2022-09-09T06:27:19;3.38;;;1.08;;
10963;SDS011;5534;48.784;9.190;2022-09-09T06:29:45;4.40;;;1.20;;
10963;SDS011;5534;48.784;9.190;2022-09-09T06:32:10;2.15;;;1.20;;
10963;SDS011;5534;48.784;9.190;2022-09-09T06:34:36;2.33;;;1.15;;
10963;SDS011;5534;48.784;9.190;2022-09-09T06:37:02;1.10;;;0.82;;
10963;SDS011;5534;48.784;9.190;2022-09-09T06:39:27;1.80;;;0.90;;
10963;SDS011;5534;48.784;9.190;2022-09-09T06:41:53;1.35;;;0.85;;
10963;SDS011;5534;48.784;9.190;2022-09-09T06:44:19;2.65;;;1.00;;
10963;SDS011;5534;48.784;9.190;2022-09-09T06:46:45;2.92;;;0.82;;
10963;SDS011;5534;48.784;9.190;2022-09-09T06:49:13;1.92;;;1.05;;
10963;SDS011;5534;48.784;9.190;2022-09-09T06:51:39;4.35;;;1.02;;
10963;SDS011;5534;48.784;9.190;2022-09-09T06:54:08;6.63;;;1.15;;
10963;SDS011;5534;48.784;9.190;2022-09-09T06:56:40;3.92;;;1.52;;
10963;SDS011;5534;48.784;9.190;2022-09-09T06:59:08;2.08;;;1.05;;
10963;SDS011;5534;48.784;9.190;2022-09-09T07:01:35;2.95;;;1.13;;
10963;SDS011;5534;48.784;9.190;2022-09-09T07:04:03;2.03;;;1.00;;
10963;SDS011;5534;48.784;9.190;2022-09-09T07:06:34;2.13;;;0.93;;
10963;SDS011;5534;48.784;9.190;2022-09-09T07:09:03;2.05;;;0.80;;
10963;SDS011;5534;48.784;9.190;2022-09-09T07:11:33;2.08;;;1.00;;
10963;SDS011;5534;48.784;9.190;2022-09-09T07:14:10;2.55;;;0.80;;
10963;SDS011;5534;48.784;9.190;2022-09-09T07:16:41;2.22;;;0.90;;
10963;SDS011;5534;48.784;9.190;2022-09-09T07:19:11;2.53;;;0.65;;
10963;SDS011;5534;48.784;9.190;2022-09-09T07:21:37;6.63;;;0.98;;
10963;SDS011;5534;48.784;9.190;2022-09-09T07:24:05;2.58;;;0.93;;
10963;SDS011;5534;48.784;9.190;2022-09-09T07:26:32;3.10;;;0.95;;
10963;SDS011;5534;48.784;9.190;2022-09-09T07:28:58;1.60;;;1.02;;
10963;SDS011;5534;48.784;9.190;2022-09-09T07:31:26;2.72;;;0.88;;
10963;SDS011;5534;48.784;9.190;2022-09-09T07:33:55;1.73;;;0.88;;
10963;SDS011;5534;48.784;9.190;2022-09-09T07:38:49;3.35;;;1.55;;
10963;SDS011;5534;48.784;9.190;2022-09-09T07:41:18;1.60;;;1.10;;
10963;SDS011;5534;48.784;9.190;2022-09-09T07:43:46;2.42;;;0.88;;
10963;SDS011;5534;48.784;9.190;2022-09-09T07:46:13;1.75;;;0.90;;
10963;SDS011;5534;48.784;9.190;2022-09-09T07:48:46;3.78;;;1.30;;
10963;SDS011;5534;48.784;9.190;2022-09-09T07:51:28;3.55;;;0.93;;
10963;SDS011;5534;48.784;9.190;2022-09-09T07:53:56;5.45;;;1.35;;
10963;SDS011;5534;48.784;9.190;2022-09-09T07:56:26;3.55;;;1.00;;
10963;SDS011;5534;48.784;9.190;2022-09-09T07:58:53;2.53;;;0.82;;
10963;SDS011;5534;48.784;9.190;2022-09-09T08:01:24;1.80;;;0.73;;
10963;SDS011;5534;48.784;9.190;2022-09-09T08:03:59;1.92;;;0.80;;
10963;SDS011;5534;48.784;9.190;2022-09-09T08:06:27;10.75;;;1.08;;
10963;SDS011;5534;48.784;9.190;2022-09-09T08:08:58;2.55;;;0.73;;
10963;SDS011;5534;48.784;9.190;2022-09-09T08:11:25;2.38;;;1.08;;
10963;SDS011;5534;48.784;9.190;2022-09-09T08:13:53;1.35;;;0.80;;
10963;SDS011;5534;48.784;9.190;2022-09-09T08:16:20;3.72;;;0.90;;
10963;SDS011;5534;48.784;9.190;2022-09-09T08:18:51;2.13;;;0.77;;
10963;SDS011;5534;48.784;9.190;2022-09-09T08:21:23;1.08;;;0.70;;
10963;SDS011;5534;48.784;9.190;2022-09-09T08:23:53;4.45;;;0.90;;
10963;SDS011;5534;48.784;9.190;2022-09-09T08:26:21;2.70;;;1.20;;
10963;SDS011;5534;48.784;9.190;2022-09-09T08:28:52;2.72;;;0.85;;
10963;SDS011;5534;48.784;9.190;2022-09-09T08:31:20;3.63;;;1.00;;
10963;SDS011;5534;48.784;9.190;2022-09-09T08:33:48;1.60;;;0.98;;
10963;SDS011;5534;48.784;9.190;2022-09-09T08:36:18;3.88;;;1.83;;
10963;SDS011;5534;48.784;9.190;2022-09-09T08:38:49;1.48;;;0.93;;
10963;SDS011;5534;48.784;9.190;2022-09-09T08:49:27;2.22;;;1.05;;
10963;SDS011;5534;48.784;9.190;2022-09-09T08:52:13;2.03;;;1.20;;
10963;SDS011;5534;48.784;9.190;2022-09-09T08:54:47;2.88;;;1.35;;
10963;SDS011;5534;48.784;9.190;2022-09-09T08:57:20;4.18;;;1.45;;
10963;SDS011;5534;48.784;9.190;2022-09-09T08:59:51;3.55;;;1.00;;
10963;SDS011;5534;48.784;9.190;2022-09-09T09:10:51;4.93;;;1.27;;
10963;SDS011;5534;48.784;9.190;2022-09-09T09:13:44;2.50;;;0.70;;
10963;SDS011;5534;48.784;9.190;2022-09-09T09:18:51;1.50;;;0.60;;
10963;SDS011;5534;48.784;9.190;2022-09-09T09:21:32;2.15;;;0.55;;
10963;SDS011;5534;48.784;9.190;2022-09-09T09:27:25;4.53;;;1.00;;
10963;SDS011;5534;48.784;9.190;2022-09-09T09:30:19;2.20;;;1.35;;
10963;SDS011;5534;48.784;9.190;2022-09-09T09:32:59;1.77;;;0.77;;
10963;SDS011;5534;48.784;9.190;2022-09-09T09:35:26;4.10;;;0.93;;
10963;SDS011;5534;48.784;9.190;2022-09-09T09:37:51;1.70;;;0.70;;
10963;SDS011;5534;48.784;9.190;2022-09-09T09:40:19;1.65;;;0.70;;
10963;SDS011;5534;48.784;9.190;2022-09-09T09:42:51;1.27;;;0.60;;
10963;SDS011;5534;48.784;9.190;2022-09-09T09:45:28;0.88;;;0.43;;
10963;SDS011;5534;48.784;9.190;2022-09-09T09:48:00;2.88;;;0.90;;
10963;SDS011;5534;48.784;9.190;2022-09-09T09:50:27;1.02;;;0.63;;
10963;SDS011;5534;48.784;9.190;2022-09-09T09:52:57;1.80;;;0.60;;
10963;SDS011;5534;48.784;9.190;2022-09-09T09:55:47;1.25;;;0.63;;
10963;SDS011;5534;48.784;9.190;2022-09-09T09:58:19;2.72;;;0.93;;
10963;SDS011;5534;48.784;9.190;2022-09-09T10:00:48;1.10;;;0.60;;
10963;SDS011;5534;48.784;9.190;2022-09-09T10:03:27;1.92;;;0.55;;
10963;SDS011;5534;48.784;9.190;2022-09-09T10:05:54;1.65;;;0.55;;
10963;SDS011;5534;48.784;9.190;2022-09-09T10:08:21;1.73;;;0.68;;
10963;SDS011;5534;48.784;9.190;2022-09-09T10:27:24;3.03;;;1.00;;
10963;SDS011;5534;48.784;9.190;2022-09-09T10:35:31;1.55;;;0.60;;
10963;SDS011;5534;48.784;9.190;2022-09-09T10:57:15;1.35;;;0.52;;
10963;SDS011;5534;48.784;9.190;2022-09-09T10:59:47;2.03;;;0.75;;
10963;SDS011;5534;48.784;9.190;2022-09-09T11:02:30;1.45;;;0.70;;
10963;SDS011;5534;48.784;9.190;2022-09-09T11:05:35;1.50;;;0.70;;
10963;SDS011;5534;48.784;9.190;2022-09-09T11:13:15;3.05;;;0.90;;
10963;SDS011;5534;48.784;9.190;2022-09-09T11:15:50;1.45;;;0.77;;
10963;SDS011;5534;48.784;9.190;2022-09-09T11:18:35;1.45;;;0.90;;
10963;SDS011;5534;48.784;9.190;2022-09-09T11:21:07;2.10;;;0.60;;
10963;SDS011;5534;48.784;9.190;2022-09-09T11:23:44;2.92;;;0.70;;
10963;SDS011;5534;48.784;9.190;2022-09-09T11:26:18;1.33;;;0.77;;
10963;SDS011;5534;48.784;9.190;2022-09-09T11:34:38;4.18;;;0.60;;
10963;SDS011;5534;48.784;9.190;2022-09-09T11:42:46;2.35;;;0.60;;
10963;SDS011;5534;48.784;9.190;2022-09-09T11:45:20;2.90;;;0.60;;
10963;SDS011;5534;48.784;9.190;2022-09-09T11:47:52;0.70;;;0.55;;
10963;SDS011;5534;48.784;9.190;2022-09-09T11:52:46;1.10;;;0.32;;
10963;SDS011;5534;48.784;9.190;2022-09-09T11:55:24;0.98;;;0.43;;
10963;SDS011;5534;48.784;9.190;2022-09-09T11:58:02;1.63;;;0.60;;
10963;SDS011;5534;48.784;9.190;2022-09-09T12:02:58;0.77;;;0.57;;
10963;SDS011;5534;48.784;9.190;2022-09-09T12:05:24;1.27;;;0.60;;
10963;SDS011;5534;48.784;9.190;2022-09-09T12:08:03;0.63;;;0.50;;
10963;SDS011;5534;48.784;9.190;2022-09-09T12:10:30;0.73;;;0.45;;
10963;SDS011;5534;48.784;9.190;2022-09-09T12:13:18;1.70;;;0.52;;
10963;SDS011;5534;48.784;9.190;2022-09-09T12:17:25;0.52;;;0.40;;
10963;SDS011;5534;48.784;9.190;2022-09-09T12:22:55;2.55;;;0.45;;
10963;SDS011;5534;48.784;9.190;2022-09-09T12:25:30;0.30;;;0.30;;
10963;SDS011;5534;48.784;9.190;2022-09-09T12:28:20;1.02;;;0.40;;
10963;SDS011;5534;48.784;9.190;2022-09-09T12:31:11;5.18;;;0.45;;
10963;SDS011;5534;48.784;9.190;2022-09-09T12:33:45;1.00;;;0.60;;
10963;SDS011;5534;48.784;9.190;2022-09-09T12:36:13;1.15;;;0.52;;
10963;SDS011;5534;48.784;9.190;2022-09-09T12:39:09;0.93;;;0.40;;
10963;SDS011;5534;48.784;9.190;2022-09-09T12:41:51;4.78;;;1.05;;
10963;SDS011;5534;48.784;9.190;2022-09-09T12:44:22;1.20;;;0.47;;
10963;SDS011;5534;48.784;9.190;2022-09-09T12:46:53;0.60;;;0.30;;
10963;SDS011;5534;48.784;9.190;2022-09-09T12:49:31;0.60;;;0.40;;
10963;SDS011;5534;48.784;9.190;2022-09-09T12:52:04;1.08;;;0.70;;
10963;SDS011;5534;48.784;9.190;2022-09-09T12:54:35;2.40;;;0.40;;
10963;SDS011;5534;48.784;9.190;2022-09-09T12:57:02;3.17;;;0.63;;
10963;SDS011;5534;48.784;9.190;2022-09-09T12:59:36;1.98;;;0.50;;
10963;SDS011;5534;48.784;9.190;2022-09-09T13:02:19;0.90;;;0.40;;
10963;SDS011;5534;48.784;9.190;2022-09-09T13:04:47;0.85;;;0.40;;
10963;SDS011;5534;48.784;9.190;2022-09-09T13:07:16;0.38;;;0.35;;
10963;SDS011;5534;48.784;9.190;2022-09-09T13:09:44;0.85;;;0.32;;
10963;SDS011;5534;48.784;9.190;2022-09-09T13:12:13;2.08;;;0.47;;
10963;SDS011;5534;48.784;9.190;2022-09-09T13:14:42;1.20;;;0.60;;
10963;SDS011;5534;48.784;9.190;2022-09-09T13:17:17;1.75;;;0.70;;
10963;SDS011;5534;48.784;9.190;2022-09-09T13:19:45;2.83;;;0.60;;
10963;SDS011;5534;48.784;9.190;2022-09-09T13:22:19;1.60;;;0.73;;
10963;SDS011;5534;48.784;9.190;2022-09-09T13:24:57;1.67;;;0.70;;
10963;SDS011;5534;48.784;9.190;2022-09-09T13:27:31;1.02;;;0.57;;
10963;SDS011;5534;48.784;9.190;2022-09-09T13:29:59;1.08;;;0.50;;
10963;SDS011;5534;48.784;9.190;2022-09-09T13:32:26;0.68;;;0.40;;
10963;SDS011;5534;48.784;9.190;2022-09-09T13:34:55;0.95;;;0.40;;
10963;SDS011;5534;48.784;9.190;2022-09-09T13:37:28;1.30;;;0.55;;
10963;SDS011;5534;48.784;9.190;2022-09-09T13:40:14;0.50;;;0.40;;
10963;SDS011;5534;48.784;9.190;2022-09-09T13:42:43;0.75;;;0.50;;
10963;SDS011;5534;48.784;9.190;2022-09-09T13:45:20;2.65;;;0.60;;
10963;SDS011;5534;48.784;9.190;2022-09-09T13:47:48;1.65;;;0.70;;
10963;SDS011;5534;48.784;9.190;2022-09-09T13:50:18;1.27;;;0.65;;
10963;SDS011;5534;48.784;9.190;2022-09-09T13:52:47;1.27;;;0.60;;
10963;SDS011;5534;48.784;9.190;2022-09-09T13:55:20;1.73;;;0.77;;
10963;SDS011;5534;48.784;9.190;2022-09-09T13:57:50;1.38;;;0.43;;
10963;SDS011;5534;48.784;9.190;2022-09-09T14:00:18;1.70;;;0.77;;
10963;SDS011;5534;48.784;9.190;2022-09-09T14:02:44;1.73;;;0.50;;
10963;SDS011;5534;48.784;9.190;2022-09-09T14:05:10;0.60;;;0.30;;
10963;SDS011;5534;48.784;9.190;2022-09-09T14:07:36;1.83;;;0.40;;
10963;SDS011;5534;48.784;9.190;2022-09-09T14:10:05;0.90;;;0.52;;
10963;SDS011;5534;48.784;9.190;2022-09-09T14:12:31;2.17;;;0.70;;
10963;SDS011;5534;48.784;9.190;2022-09-09T14:14:59;1.95;;;0.35;;
10963;SDS011;5534;48.784;9.190;2022-09-09T14:17:25;1.15;;;0.50;;
10963;SDS011;5534;48.784;9.190;2022-09-09T14:19:57;1.95;;;0.45;;
10963;SDS011;5534;48.784;9.190;2022-09-09T14:22:23;1.52;;;0.60;;
10963;SDS011;5534;48.784;9.190;2022-09-09T14:24:49;1.02;;;0.82;;
10963;SDS011;5534;48.784;9.190;2022-09-09T14:27:16;1.00;;;0.60;;
10963;SDS011;5534;48.784;9.190;2022-09-09T14:29:44;0.95;;;0.60;;
10963;SDS011;5534;48.784;9.190;2022-09-09T14:32:10;2.03;;;0.50;;
10963;SDS011;5534;48.784;9.190;2022-09-09T14:34:36;1.05;;;0.50;;
10963;SDS011;5534;48.784;9.190;2022-09-09T14:37:04;2.50;;;0.50;;
10963;SDS011;5534;48.784;9.190;2022-09-09T14:39:33;3.22;;;0.40;;
10963;SDS011;5534;48.784;9.190;2022-09-09T14:41:58;1.05;;;0.30;;
10963;SDS011;5534;48.784;9.190;2022-09-09T14:44:24;0.75;;;0.50;;
10963;SDS011;5534;48.784;9.190;2022-09-09T14:46:51;1.75;;;0.52;;
10963;SDS011;5534;48.784;9.190;2022-09-09T14:49:17;1.15;;;0.38;;
10963;SDS011;5534;48.784;9.190;2022-09-09T14:51:43;3.50;;;0.50;;
10963;SDS011;5534;48.784;9.190;2022-09-09T14:54:09;1.30;;;0.60;;
10963;SDS011;5534;48.784;9.190;2022-09-09T14:56:36;1.77;;;0.50;;
10963;SDS011;5534;48.784;9.190;2022-09-09T14:59:02;2.10;;;0.50;;
10963;SDS011;5534;48.784;9.190;2022-09-09T15:01:30;2.20;;;0.88;;
10963;SDS011;5534;48.784;9.190;2022-09-09T15:03:58;0.63;;;0.30;;
10963;SDS011;5534;48.784;9.190;2022-09-09T15:06:27;1.05;;;0.20;;
10963;SDS011;5534;48.784;9.190;2022-09-09T15:08:55;1.00;;;0.32;;
10963;SDS011;5534;48.784;9.190;2022-09-09T15:11:25;2.67;;;0.25;;
10963;SDS011;5534;48.784;9.190;2022-09-09T15:13:53;1.95;;;0.43;;
10963;SDS011;5534;48.784;9.190;2022-09-09T15:16:20;0.75;;;0.40;;
10963;SDS011;5534;48.784;9.190;2022-09-09T15:18:50;0.57;;;0.30;;
10963;SDS011;5534;48.784;9.190;2022-09-09T15:21:19;0.70;;;0.40;;
10963;SDS011;5534;48.784;9.190;2022-09-09T15:23:46;0.63;;;0.50;;
10963;SDS011;5534;48.784;9.190;2022-09-09T15:26:12;1.15;;;0.50;;
10963;SDS011;5534;48.784;9.190;2022-09-09T15:28:39;3.10;;;0.60;;
10963;SDS011;5534;48.784;9.190;2022-09-09T15:31:07;1.10;;;0.50;;
10963;SDS011;5534;48.784;9.190;2022-09-09T15:33:39;2.67;;;0.90;;
10963;SDS011;5534;48.784;9.190;2022-09-09T15:36:13;1.05;;;0.50;;
10963;SDS011;5534;48.784;9.190;2022-09-09T15:38:39;1.48;;;0.63;;
10963;SDS011;5534;48.784;9.190;2022-09-09T15:41:04;1.48;;;0.60;;
10963;SDS011;5534;48.784;9.190;2022-09-09T15:43:30;0.98;;;0.60;;
10963;SDS011;5534;48.784;9.190;2022-09-09T15:45:57;1.40;;;0.77;;
10963;SDS011;5534;48.784;9.190;2022-09-09T15:48:30;3.15;;;1.20;;
10963;SDS011;5534;48.784;9.190;2022-09-09T15:51:03;2.28;;;1.48;;
10963;SDS011;5534;48.784;9.190;2022-09-09T15:53:29;1.55;;;0.70;;
10963;SDS011;5534;48.784;9.190;2022-09-09T15:55:57;2.38;;;1.15;;
10963;SDS011;5534;48.784;9.190;2022-09-09T15:58:24;1.23;;;0.70;;
10963;SDS011;5534;48.784;9.190;2022-09-09T16:00:50;2.45;;;1.20;;
10963;SDS011;5534;48.784;9.190;2022-09-09T16:03:16;1.63;;;0.55;;
10963;SDS011;5534;48.784;9.190;2022-09-09T16:05:42;0.55;;;0.35;;
10963;SDS011;5534;48.784;9.190;2022-09-09T16:08:08;2.67;;;0.50;;
10963;SDS011;5534;48.784;9.190;2022-09-09T16:10:34;1.23;;;0.70;;
10963;SDS011;5534;48.784;9.190;2022-09-09T16:13:00;2.17;;;1.10;;
10963;SDS011;5534;48.784;9.190;2022-09-09T16:15:25;1.30;;;0.90;;
10963;SDS011;5534;48.784;9.190;2022-09-09T16:17:54;0.73;;;0.50;;
10963;SDS011;5534;48.784;9.190;2022-09-09T16:20:20;2.38;;;0.80;;
10963;SDS011;5534;48.784;9.190;2022-09-09T16:22:46;1.80;;;0.60;;
10963;SDS011;5534;48.784;9.190;2022-09-09T16:25:20;1.33;;;0.70;;
10963;SDS011;5534;48.784;9.190;2022-09-09T16:27:47;1.10;;;0.50;;
10963;SDS011;5534;48.784;9.190;2022-09-09T16:30:13;1.77;;;0.50;;
10963;SDS011;5534;48.784;9.190;2022-09-09T16:32:39;1.63;;;0.60;;
10963;SDS011;5534;48.784;9.190;2022-09-09T16:35:05;0.77;;;0.50;;
10963;SDS011;5534;48.784;9.190;2022-09-09T16:37:31;1.73;;;0.47;;
10963;SDS011;5534;48.784;9.190;2022-09-09T16:39:59;1.60;;;0.63;;
10963;SDS011;5534;48.784;9.190;2022-09-09T16:42:24;1.77;;;0.60;;
10963;SDS011;5534;48.784;9.190;2022-09-09T16:44:50;0.45;;;0.32;;
10963;SDS011;5534;48.784;9.190;2022-09-09T16:47:16;1.98;;;0.70;;
10963;SDS011;5534;48.784;9.190;2022-09-09T16:49:48;0.80;;;0.60;;
10963;SDS011;5534;48.784;9.190;2022-09-09T16:52:14;0.63;;;0.40;;
10963;SDS011;5534;48.784;9.190;2022-09-09T16:54:39;2.35;;;0.47;;
10963;SDS011;5534;48.784;9.190;2022-09-09T16:57:08;1.95;;;0.70;;
10963;SDS011;5534;48.784;9.190;2022-09-09T16:59:34;0.25;;;0.25;;
10963;SDS011;5534;48.784;9.190;2022-09-09T17:02:01;0.50;;;0.35;;
10963;SDS011;5534;48.784;9.190;2022-09-09T17:04:29;1.20;;;0.40;;
10963;SDS011;5534;48.784;9.190;2022-09-09T17:06:56;0.20;;;0.20;;
10963;SDS011;5534;48.784;9.190;2022-09-09T17:09:22;0.38;;;0.30;;
10963;SDS011;5534;48.784;9.190;2022-09-09T17:11:48;2.10;;;0.95;;
10963;SDS011;5534;48.784;9.190;2022-09-09T17:14:17;1.20;;;0.75;;
10963;SDS011;5534;48.784;9.190;2022-09-09T17:16:44;0.63;;;0.47;;
10963;SDS011;5534;48.784;9.190;2022-09-09T17:19:12;0.93;;;0.50;;
10963;SDS011;5534;48.784;9.190;2022-09-09T17:21:38;0.25;;;0.25;;
10963;SDS011;5534;48.784;9.190;2022-09-09T17:24:04;2.15;;;0.93;;
10963;SDS011;5534;48.784;9.190;2022-09-09T17:26:30;2.00;;;0.70;;
10963;SDS011;5534;48.784;9.190;2022-09-09T17:28:59;0.45;;;0.35;;
10963;SDS011;5534;48.784;9.190;2022-09-09T17:31:26;0.75;;;0.40;;
10963;SDS011;5534;48.784;9.190;2022-09-09T17:33:53;0.80;;;0.40;;
10963;SDS011;5534;48.784;9.190;2022-09-09T17:36:21;0.60;;;0.50;;
10963;SDS011;5534;48.784;9.190;2022-09-09T17:38:49;0.63;;;0.40;;
10963;SDS011;5534;48.784;9.190;2022-09-09T17:41:17;0.55;;;0.50;;